createdAt,value
2022-12-25T00:02:15.830Z,11.10
2022-12-25T00:04:43.526Z,11.10
2022-12-25T00:07:12.703Z,11.10
2022-12-25T00:09:40.343Z,11.10
2022-12-25T00:12:08.019Z,11.00
2022-12-25T00:14:35.659Z,11.00
2022-12-25T00:17:03.308Z,10.80
2022-12-25T00:19:31.008Z,10.60
2022-12-25T00:21:58.656Z,10.30
2022-12-25T00:24:27.624Z,10.10
2022-12-25T00:26:55.311Z,9.90
2022-12-25T00:29:22.990Z,9.90
2022-12-25T00:31:50.735Z,10.00
2022-12-25T00:34:18.703Z,10.10
2022-12-25T00:36:46.387Z,10.20
2022-12-25T00:39:14.028Z,10.20
2022-12-25T00:42:00.349Z,10.30
2022-12-25T00:44:28.062Z,10.30
2022-12-25T00:46:55.724Z,10.30
2022-12-25T00:49:23.665Z,10.20
2022-12-25T00:51:51.746Z,10.20
2022-12-25T00:54:19.903Z,10.10
2022-12-25T00:56:49.025Z,9.90
2022-12-25T00:59:16.792Z,9.80
2022-12-25T01:01:44.703Z,9.70
2022-12-25T01:04:13.043Z,9.70
2022-12-25T01:06:40.720Z,9.60
2022-12-25T01:09:26.619Z,9.60
2022-12-25T01:11:55.610Z,9.60
2022-12-25T01:14:23.245Z,9.60
2022-12-25T01:16:51.011Z,9.60
2022-12-25T01:19:18.743Z,9.60
2022-12-25T01:21:46.398Z,9.70
2022-12-25T01:24:14.068Z,9.80
2022-12-25T01:26:41.727Z,9.90
2022-12-25T01:29:10.741Z,9.90
2022-12-25T01:31:38.720Z,10.00
2022-12-25T01:34:06.418Z,10.00
2022-12-25T01:36:34.081Z,10.00
2022-12-25T01:39:01.746Z,10.00
2022-12-25T01:41:29.426Z,10.00
2022-12-25T01:43:58.583Z,10.00
2022-12-25T01:46:27.655Z,9.90
2022-12-25T01:48:56.587Z,9.60
2022-12-25T01:51:26.316Z,9.50
2022-12-25T01:53:54.289Z,9.40
2022-12-25T01:56:22.041Z,9.40
2022-12-25T01:58:50.097Z,9.60
2022-12-25T02:01:17.914Z,9.60
2022-12-25T02:03:47.056Z,9.70
2022-12-25T02:06:14.805Z,9.70
2022-12-25T02:08:42.680Z,9.80
2022-12-25T02:11:31.112Z,9.90
2022-12-25T02:13:58.922Z,9.80
2022-12-25T02:16:29.171Z,9.90
2022-12-25T02:19:01.543Z,9.90
2022-12-25T02:21:39.103Z,9.80
2022-12-25T02:24:12.709Z,9.60
2022-12-25T02:26:56.285Z,9.70
2022-12-25T02:29:27.610Z,9.70
2022-12-25T02:31:59.762Z,9.60
2022-12-25T02:34:32.752Z,9.70
2022-12-25T02:37:04.708Z,9.70
2022-12-25T02:39:52.525Z,9.60
2022-12-25T02:42:23.446Z,9.60
2022-12-25T02:45:10.537Z,9.40
2022-12-25T02:47:56.705Z,9.20
2022-12-25T02:50:51.854Z,9.20
2022-12-25T02:53:36.878Z,9.20
2022-12-25T02:56:27.246Z,9.20
2022-12-25T02:59:12.563Z,9.20
2022-12-25T03:01:59.844Z,9.30
2022-12-25T03:04:45.788Z,9.20
2022-12-25T03:07:15.584Z,9.30
2022-12-25T03:10:04.144Z,9.50
2022-12-25T03:12:43.499Z,9.60
2022-12-25T03:15:30.775Z,9.50
2022-12-25T03:18:01.160Z,9.60
2022-12-25T03:20:47.595Z,9.50
2022-12-25T03:23:34.813Z,9.50
2022-12-25T03:26:19.905Z,9.50
2022-12-25T03:28:47.578Z,9.60
2022-12-25T03:31:17.167Z,9.60
2022-12-25T03:34:23.112Z,9.70
2022-12-25T03:37:00.200Z,9.80
2022-12-25T03:39:54.308Z,9.80
2022-12-25T03:42:37.672Z,9.90
2022-12-25T03:45:27.144Z,10.00
2022-12-25T03:48:09.895Z,10.10
2022-12-25T03:50:58.753Z,10.00
2022-12-25T03:53:45.893Z,10.10
2022-12-25T03:56:31.255Z,10.20
2022-12-25T03:59:23.120Z,10.20
2022-12-25T04:02:09.522Z,10.20
2022-12-25T04:04:54.955Z,10.30
2022-12-25T04:07:41.971Z,10.30
2022-12-25T04:10:28.216Z,10.30
2022-12-25T04:13:13.344Z,10.40
2022-12-25T04:15:58.575Z,10.40
2022-12-25T04:18:44.004Z,10.20
2022-12-25T04:21:29.028Z,10.20
2022-12-25T04:24:15.283Z,10.30
2022-12-25T04:27:00.281Z,10.40
2022-12-25T04:29:45.576Z,10.50
2022-12-25T04:32:30.589Z,10.50
2022-12-25T04:35:15.821Z,10.50
2022-12-25T04:37:43.551Z,10.60
2022-12-25T04:40:12.868Z,10.70
2022-12-25T04:42:40.959Z,10.70
2022-12-25T04:45:09.487Z,10.80
2022-12-25T04:47:37.160Z,10.90
2022-12-25T04:50:05.153Z,10.90
2022-12-25T04:52:35.375Z,10.90
2022-12-25T04:55:03.044Z,11.00
2022-12-25T04:57:32.280Z,11.00
2022-12-25T05:00:00.058Z,11.00
2022-12-25T05:02:27.926Z,10.90
2022-12-25T05:04:56.009Z,11.00
2022-12-25T05:07:23.647Z,10.90
2022-12-25T05:09:51.307Z,10.90
2022-12-25T05:12:19.009Z,11.00
2022-12-25T05:14:48.115Z,11.10
2022-12-25T05:17:15.787Z,11.00
2022-12-25T05:19:43.464Z,11.00
2022-12-25T05:22:11.104Z,11.00
2022-12-25T05:24:38.775Z,11.00
2022-12-25T05:27:06.471Z,11.00
2022-12-25T05:29:34.151Z,11.10
2022-12-25T05:32:03.201Z,11.10
2022-12-25T05:34:30.848Z,11.20
2022-12-25T05:36:58.504Z,11.20
2022-12-25T05:39:26.206Z,11.30
2022-12-25T05:41:53.879Z,11.30
2022-12-25T05:44:21.558Z,11.30
2022-12-25T05:46:49.279Z,11.40
2022-12-25T05:49:18.361Z,11.40
2022-12-25T05:51:46.055Z,11.40
2022-12-25T05:54:13.711Z,11.40
2022-12-25T05:56:41.377Z,11.30
2022-12-25T05:59:09.192Z,11.20
2022-12-25T06:01:37.019Z,11.30
2022-12-25T06:04:11.953Z,11.30
2022-12-25T06:06:41.575Z,11.30
2022-12-25T06:09:09.683Z,11.30
2022-12-25T06:11:37.322Z,11.30
2022-12-25T06:14:05.067Z,11.20
2022-12-25T06:16:37.839Z,11.20
2022-12-25T06:19:06.044Z,11.20
2022-12-25T06:21:33.890Z,11.20
2022-12-25T06:24:03.284Z,11.20
2022-12-25T06:26:31.038Z,11.10
2022-12-25T06:28:58.765Z,11.10
2022-12-25T06:31:26.481Z,11.10
2022-12-25T06:33:54.158Z,11.10
2022-12-25T06:36:23.708Z,11.10
2022-12-25T06:38:51.934Z,11.00
2022-12-25T06:41:22.530Z,11.00
2022-12-25T06:43:50.593Z,10.90
2022-12-25T06:46:18.950Z,11.00
2022-12-25T06:48:49.320Z,10.80
2022-12-25T06:51:17.248Z,10.70
2022-12-25T06:53:44.916Z,10.60
2022-12-25T06:56:18.805Z,10.50
2022-12-25T06:58:48.847Z,10.40
2022-12-25T07:01:19.039Z,10.20
2022-12-25T07:03:47.853Z,10.00
2022-12-25T07:06:15.959Z,10.00
2022-12-25T07:08:43.646Z,9.90
2022-12-25T07:11:11.282Z,9.90
2022-12-25T07:13:38.931Z,9.90
2022-12-25T07:16:08.548Z,9.90
2022-12-25T07:18:36.266Z,9.90
2022-12-25T07:21:07.505Z,9.90
2022-12-25T07:23:35.288Z,9.90
2022-12-25T07:26:04.917Z,9.90
2022-12-25T07:28:33.130Z,10.00
2022-12-25T07:31:03.915Z,9.90
2022-12-25T07:33:32.971Z,9.90
2022-12-25T07:36:00.616Z,9.90
2022-12-25T07:38:28.274Z,9.80
2022-12-25T07:40:55.923Z,9.80
2022-12-25T07:43:23.880Z,9.60
2022-12-25T07:45:54.937Z,9.60
2022-12-25T07:48:22.641Z,9.60
2022-12-25T07:50:55.947Z,9.60
2022-12-25T07:53:23.605Z,9.60
2022-12-25T07:55:56.919Z,9.60
2022-12-25T07:58:24.637Z,9.60
2022-12-25T08:00:52.381Z,9.60
2022-12-25T08:03:20.323Z,9.70
2022-12-25T08:05:48.276Z,9.80
2022-12-25T08:08:17.293Z,9.90
2022-12-25T08:10:48.713Z,9.70
2022-12-25T08:13:16.356Z,9.70
2022-12-25T08:15:43.982Z,9.70
2022-12-25T08:18:11.688Z,9.70
2022-12-25T08:20:39.303Z,9.70
2022-12-25T08:23:07.001Z,9.60
2022-12-25T08:25:36.070Z,9.60
2022-12-25T08:28:03.772Z,9.60
2022-12-25T08:30:31.507Z,9.60
2022-12-25T08:32:59.233Z,9.60
2022-12-25T08:35:27.065Z,9.60
2022-12-25T08:37:54.724Z,9.60
2022-12-25T08:40:22.409Z,9.70
2022-12-25T08:42:51.401Z,9.70
2022-12-25T08:45:19.083Z,9.60
2022-12-25T08:47:46.755Z,9.70
2022-12-25T08:50:14.423Z,9.70
2022-12-25T08:52:42.171Z,9.60
2022-12-25T08:55:09.954Z,9.60
2022-12-25T08:57:37.603Z,9.50
2022-12-25T09:00:07.383Z,9.50
2022-12-25T09:02:35.255Z,9.40
2022-12-25T09:05:03.120Z,9.40
2022-12-25T09:07:30.781Z,9.40
2022-12-25T09:09:58.508Z,9.40
2022-12-25T09:12:26.157Z,9.50
2022-12-25T09:14:53.832Z,9.60
2022-12-25T09:17:23.070Z,9.70
2022-12-25T09:19:50.717Z,9.80
2022-12-25T09:22:19.244Z,9.80
2022-12-25T09:24:46.957Z,9.90
2022-12-25T09:27:14.630Z,9.80
2022-12-25T09:29:42.325Z,9.70
2022-12-25T09:32:10.054Z,9.70
2022-12-25T09:34:39.055Z,9.70
2022-12-25T09:37:06.723Z,9.60
2022-12-25T09:39:34.391Z,9.60
2022-12-25T09:42:03.168Z,9.70
2022-12-25T09:44:33.194Z,9.70
2022-12-25T09:47:02.473Z,9.60
2022-12-25T09:49:33.911Z,9.70
2022-12-25T09:52:04.309Z,9.80
2022-12-25T09:54:37.939Z,9.80
2022-12-25T09:57:06.512Z,9.80
2022-12-25T09:59:34.201Z,9.80
2022-12-25T10:02:11.335Z,9.80
2022-12-25T10:04:48.350Z,9.70
2022-12-25T10:07:20.984Z,9.70
2022-12-25T10:09:54.264Z,9.70
2022-12-25T10:12:31.083Z,9.70
2022-12-25T10:15:04.922Z,9.80
2022-12-25T10:17:38.175Z,9.90
2022-12-25T10:20:11.561Z,9.90
2022-12-25T10:22:41.812Z,10.10
2022-12-25T10:25:15.678Z,10.20
2022-12-25T10:27:43.826Z,10.30
2022-12-25T10:30:15.753Z,10.50
2022-12-25T10:32:43.830Z,10.60
2022-12-25T10:35:12.379Z,10.60
2022-12-25T10:37:41.540Z,10.60
2022-12-25T10:40:21.084Z,10.60
2022-12-25T10:42:50.917Z,10.70
2022-12-25T10:45:18.621Z,10.70
2022-12-25T10:47:46.778Z,10.60
2022-12-25T10:50:19.691Z,10.60
2022-12-25T10:52:51.892Z,10.70
2022-12-25T10:55:23.649Z,10.70
2022-12-25T10:57:57.652Z,10.80
2022-12-25T11:00:26.438Z,10.90
2022-12-25T11:02:54.361Z,10.90
2022-12-25T11:05:28.003Z,11.00
2022-12-25T11:07:58.486Z,11.00
2022-12-25T11:10:27.129Z,11.10
2022-12-25T11:12:57.248Z,11.10
2022-12-25T11:15:36.101Z,11.20
2022-12-25T11:18:04.184Z,11.30
2022-12-25T11:20:33.153Z,11.30
2022-12-25T11:23:02.187Z,11.40
2022-12-25T11:25:29.875Z,11.40
2022-12-25T11:27:58.495Z,11.30
2022-12-25T11:30:26.200Z,11.20
2022-12-25T11:32:56.124Z,11.20
2022-12-25T11:35:28.827Z,11.20
2022-12-25T11:37:56.464Z,11.30
2022-12-25T11:40:28.551Z,11.20
2022-12-25T11:43:02.550Z,11.10
2022-12-25T11:45:35.923Z,11.20
2022-12-25T11:48:06.973Z,11.10
2022-12-25T11:50:36.386Z,11.20
2022-12-25T11:53:05.844Z,11.20
2022-12-25T11:55:38.773Z,11.30
2022-12-25T11:58:12.687Z,11.40
2022-12-25T12:00:41.705Z,11.50
2022-12-25T12:03:14.622Z,11.60
2022-12-25T12:05:45.216Z,11.70
2022-12-25T12:08:14.314Z,11.80
2022-12-25T12:10:51.121Z,11.80
2022-12-25T12:13:27.896Z,11.80
2022-12-25T12:15:55.674Z,11.90
2022-12-25T12:18:24.137Z,11.90
2022-12-25T12:21:02.642Z,12.00
2022-12-25T12:23:31.540Z,11.90
2022-12-25T12:26:01.141Z,11.90
2022-12-25T12:28:31.529Z,11.80
2022-12-25T12:31:01.506Z,11.90
2022-12-25T12:33:33.108Z,11.80
2022-12-25T12:36:02.573Z,11.70
2022-12-25T12:38:32.119Z,11.70
2022-12-25T12:41:06.096Z,11.70
2022-12-25T12:43:36.967Z,11.80
2022-12-25T12:46:10.045Z,11.70
2022-12-25T12:48:42.386Z,11.70
2022-12-25T12:51:12.097Z,11.70
2022-12-25T12:53:40.283Z,11.60
2022-12-25T12:56:13.903Z,11.80
2022-12-25T12:58:45.279Z,11.70
2022-12-25T13:01:20.010Z,11.60
2022-12-25T13:03:57.212Z,11.70
2022-12-25T13:06:28.213Z,11.70
2022-12-25T13:09:01.779Z,11.80
2022-12-25T13:11:32.832Z,11.80
2022-12-25T13:14:02.473Z,11.90
2022-12-25T13:16:32.015Z,12.00
2022-12-25T13:19:01.244Z,12.00
2022-12-25T13:21:29.770Z,12.00
2022-12-25T13:23:58.570Z,12.00
2022-12-25T13:26:26.210Z,12.00
2022-12-25T13:28:56.110Z,12.00
2022-12-25T13:31:24.550Z,11.90
2022-12-25T13:33:56.284Z,11.80
2022-12-25T13:36:23.978Z,11.70
2022-12-25T13:38:53.061Z,11.80
2022-12-25T13:41:39.124Z,11.70
2022-12-25T13:44:15.467Z,11.70
2022-12-25T13:46:43.114Z,11.60
2022-12-25T13:49:14.825Z,11.70
2022-12-25T13:51:42.467Z,11.70
2022-12-25T13:54:11.557Z,11.70
2022-12-25T13:56:46.197Z,11.70
2022-12-25T13:59:16.526Z,11.70
2022-12-25T14:01:44.584Z,11.70
2022-12-25T14:04:15.290Z,11.70
2022-12-25T14:06:42.970Z,11.60
2022-12-25T14:09:10.961Z,11.70
2022-12-25T14:11:39.541Z,11.70
2022-12-25T14:14:08.682Z,11.70
2022-12-25T14:16:37.761Z,11.70
2022-12-25T14:19:20.368Z,11.70
2022-12-25T14:21:55.271Z,11.70
2022-12-25T14:24:24.251Z,11.70
2022-12-25T14:26:57.235Z,11.70
2022-12-25T14:29:28.307Z,11.70
2022-12-25T14:32:00.453Z,11.70
2022-12-25T14:34:28.902Z,11.70
2022-12-25T14:36:56.891Z,11.70
2022-12-25T14:39:27.574Z,11.60
2022-12-25T14:41:55.289Z,11.60
2022-12-25T14:44:29.040Z,11.50
2022-12-25T14:47:05.735Z,11.50
2022-12-25T14:49:33.425Z,11.40
2022-12-25T14:52:04.065Z,11.30
2022-12-25T14:54:31.788Z,11.40
2022-12-25T14:56:59.440Z,11.30
2022-12-25T14:59:28.041Z,11.30
2022-12-25T15:01:57.097Z,11.40
2022-12-25T15:04:27.760Z,11.30
2022-12-25T15:06:56.662Z,11.40
2022-12-25T15:09:24.800Z,11.30
2022-12-25T15:11:53.257Z,11.30
2022-12-25T15:14:20.971Z,11.30
2022-12-25T15:16:49.448Z,11.30
2022-12-25T15:19:21.880Z,11.30
2022-12-25T15:21:54.381Z,11.20
2022-12-25T15:24:22.165Z,11.20
2022-12-25T15:26:49.829Z,11.20
2022-12-25T15:29:59.698Z,11.20
2022-12-25T15:32:16.584Z,11.20
2022-12-25T15:34:46.171Z,11.10
2022-12-25T15:37:15.421Z,11.10
2022-12-25T15:39:43.083Z,11.10
2022-12-25T15:42:14.630Z,11.00
2022-12-25T15:44:42.795Z,11.00
2022-12-25T15:47:12.829Z,11.00
2022-12-25T15:49:40.542Z,11.00
2022-12-25T15:52:09.124Z,10.90
2022-12-25T15:54:38.295Z,10.90
2022-12-25T15:57:07.434Z,10.90
2022-12-25T15:59:35.119Z,10.90
2022-12-25T16:02:02.822Z,10.90
2022-12-25T16:04:31.721Z,10.80
2022-12-25T16:06:59.544Z,10.80
2022-12-25T16:09:27.858Z,10.80
2022-12-25T16:11:56.923Z,10.80
2022-12-25T16:14:24.615Z,10.70
2022-12-25T16:16:52.321Z,10.70
2022-12-25T16:19:19.993Z,10.60
2022-12-25T16:21:47.937Z,10.50
2022-12-25T16:24:16.019Z,10.50
2022-12-25T16:26:43.676Z,10.50
2022-12-25T16:29:12.744Z,10.40
2022-12-25T16:31:41.185Z,10.50
2022-12-25T16:34:09.696Z,10.50
2022-12-25T16:36:38.964Z,10.50
2022-12-25T16:39:07.863Z,10.40
2022-12-25T16:41:35.962Z,10.40
2022-12-25T16:44:08.875Z,10.40
2022-12-25T16:46:38.595Z,10.30
2022-12-25T16:49:06.315Z,10.30
2022-12-25T16:51:34.042Z,10.30
2022-12-25T16:54:01.714Z,10.30
2022-12-25T16:56:38.401Z,10.30
2022-12-25T16:59:06.092Z,10.30
2022-12-25T17:01:33.853Z,10.20
2022-12-25T17:04:03.369Z,10.20
2022-12-25T17:06:31.090Z,10.20
2022-12-25T17:08:59.672Z,10.20
2022-12-25T17:11:29.723Z,10.20
2022-12-25T17:13:58.009Z,10.30
2022-12-25T17:16:26.958Z,10.30
2022-12-25T17:18:55.008Z,10.30
2022-12-25T17:21:24.031Z,10.30
2022-12-25T17:23:55.317Z,10.30
2022-12-25T17:26:25.796Z,10.30
2022-12-25T17:28:53.439Z,10.30
2022-12-25T17:31:21.123Z,10.30
2022-12-25T17:33:48.815Z,10.30
2022-12-25T17:36:18.178Z,10.40
2022-12-25T17:38:47.474Z,10.40
2022-12-25T17:41:16.079Z,10.50
2022-12-25T17:43:45.561Z,10.50
2022-12-25T17:46:14.762Z,10.50
2022-12-25T17:48:42.874Z,10.60
2022-12-25T17:51:11.476Z,10.60
2022-12-25T17:53:40.161Z,10.60
2022-12-25T17:56:09.687Z,10.60
2022-12-25T17:58:38.174Z,10.60
2022-12-25T18:01:06.475Z,10.60
2022-12-25T18:03:34.500Z,10.80
2022-12-25T18:06:02.480Z,11.60
2022-12-25T18:08:35.350Z,12.50
2022-12-25T18:11:07.730Z,13.30
2022-12-25T18:13:37.207Z,13.50
2022-12-25T18:16:06.130Z,13.70
2022-12-25T18:18:34.032Z,13.60
2022-12-25T18:21:01.887Z,13.20
2022-12-25T18:23:29.567Z,12.80
2022-12-25T18:25:57.327Z,12.30
2022-12-25T18:28:24.990Z,11.80
2022-12-25T18:30:53.958Z,11.40
2022-12-25T18:33:21.619Z,11.30
2022-12-25T18:35:49.271Z,11.10
2022-12-25T18:38:17.065Z,11.00
2022-12-25T18:40:45.407Z,11.00
2022-12-25T18:43:13.547Z,10.90
2022-12-25T18:45:41.635Z,10.90
2022-12-25T18:48:11.001Z,10.80
2022-12-25T18:50:39.462Z,10.70
2022-12-25T18:53:07.518Z,10.70
2022-12-25T18:55:35.209Z,10.70
2022-12-25T18:58:03.271Z,10.70
2022-12-25T19:00:30.973Z,10.60
2022-12-25T19:02:59.745Z,10.60
2022-12-25T19:05:28.903Z,10.50
2022-12-25T19:07:56.563Z,10.50
2022-12-25T19:10:24.390Z,10.50
2022-12-25T19:12:52.029Z,10.40
2022-12-25T19:15:19.766Z,10.40
2022-12-25T19:17:47.420Z,10.40
2022-12-25T19:20:15.061Z,10.40
2022-12-25T19:22:44.056Z,10.40
2022-12-25T19:25:11.940Z,10.40
2022-12-25T19:27:39.582Z,10.40
2022-12-25T19:30:08.350Z,10.40
2022-12-25T19:32:36.026Z,10.40
2022-12-25T19:35:04.775Z,10.40
2022-12-25T19:37:32.495Z,10.50
2022-12-25T19:40:01.676Z,10.50
2022-12-25T19:42:29.314Z,10.50
2022-12-25T19:44:56.975Z,10.50
2022-12-25T19:47:24.645Z,10.50
2022-12-25T19:49:53.379Z,11.00
2022-12-25T19:52:22.018Z,12.10
2022-12-25T19:54:51.288Z,12.60
2022-12-25T19:57:20.281Z,13.50
2022-12-25T19:59:49.679Z,14.00
2022-12-25T20:02:17.668Z,14.20
2022-12-25T20:04:45.372Z,13.60
2022-12-25T20:07:13.024Z,13.10
2022-12-25T20:09:41.073Z,13.10
2022-12-25T20:12:10.325Z,13.50
2022-12-25T20:14:39.330Z,13.90
2022-12-25T20:17:12.184Z,13.80
2022-12-25T20:19:43.079Z,13.30
2022-12-25T20:22:10.756Z,12.80
2022-12-25T20:24:38.453Z,12.40
2022-12-25T20:27:06.083Z,11.70
2022-12-25T20:29:34.010Z,11.30
2022-12-25T20:32:03.031Z,10.90
2022-12-25T20:34:30.719Z,10.70
2022-12-25T20:36:58.389Z,10.60
2022-12-25T20:39:26.450Z,10.40
2022-12-25T20:41:54.144Z,10.40
2022-12-25T20:44:21.779Z,10.30
2022-12-25T20:46:49.505Z,10.30
2022-12-25T20:49:18.608Z,10.30
2022-12-25T20:51:46.270Z,10.20
2022-12-25T20:54:14.965Z,10.20
2022-12-25T20:56:42.629Z,10.10
2022-12-25T20:59:11.483Z,10.10
2022-12-25T21:01:39.320Z,10.10
2022-12-25T21:04:11.517Z,10.10
2022-12-25T21:06:43.535Z,10.10
2022-12-25T21:09:11.175Z,10.10
2022-12-25T21:11:38.837Z,10.10
2022-12-25T21:14:06.549Z,10.20
2022-12-25T21:16:35.280Z,10.10
2022-12-25T21:19:03.151Z,10.10
2022-12-25T21:21:30.909Z,10.20
2022-12-25T21:23:59.899Z,10.20
2022-12-25T21:26:29.624Z,10.30
2022-12-25T21:29:00.094Z,10.30
2022-12-25T21:31:27.847Z,10.30
2022-12-25T21:33:55.381Z,10.30
2022-12-25T21:36:25.163Z,10.30
2022-12-25T21:38:54.318Z,10.30
2022-12-25T21:41:23.322Z,10.30
2022-12-25T21:43:51.586Z,10.30
2022-12-25T21:46:19.575Z,10.30
2022-12-25T21:48:47.423Z,10.30
2022-12-25T21:51:30.152Z,10.30
2022-12-25T21:53:58.866Z,10.30
2022-12-25T21:56:29.985Z,10.30
2022-12-25T21:58:59.438Z,10.30
2022-12-25T22:01:27.342Z,10.30
2022-12-25T22:03:55.139Z,10.30
2022-12-25T22:06:40.632Z,10.20
2022-12-25T22:09:08.329Z,10.30
2022-12-25T22:11:54.797Z,10.20
2022-12-25T22:14:51.196Z,10.30
2022-12-25T22:17:39.270Z,10.30
2022-12-25T22:20:08.201Z,10.20
2022-12-25T22:22:36.005Z,10.20
2022-12-25T22:25:04.629Z,10.20
2022-12-25T22:27:34.088Z,10.20
2022-12-25T22:30:01.985Z,10.30
2022-12-25T22:32:29.857Z,10.30
2022-12-25T22:34:57.501Z,10.20
2022-12-25T22:37:25.163Z,10.30
2022-12-25T22:39:52.866Z,10.30
2022-12-25T22:42:20.550Z,10.30
2022-12-25T22:44:49.776Z,10.30
2022-12-25T22:47:17.461Z,10.20
2022-12-25T22:49:45.224Z,10.20
2022-12-25T22:52:12.872Z,10.20
2022-12-25T22:54:40.682Z,10.20
2022-12-25T22:57:08.325Z,10.20
2022-12-25T22:59:35.984Z,10.20
2022-12-25T23:02:05.265Z,10.20
2022-12-25T23:04:33.024Z,10.20
2022-12-25T23:07:01.896Z,10.20
2022-12-25T23:09:29.635Z,10.30
2022-12-25T23:11:57.878Z,10.30
2022-12-25T23:14:40.972Z,10.30
2022-12-25T23:17:31.165Z,10.30
2022-12-25T23:20:16.981Z,10.40
2022-12-25T23:23:02.705Z,10.30
2022-12-25T23:25:48.244Z,10.30
2022-12-25T23:28:35.929Z,10.40
2022-12-25T23:31:02.688Z,10.40
2022-12-25T23:33:31.731Z,10.40
2022-12-25T23:35:59.392Z,10.50
2022-12-25T23:38:27.059Z,10.50
2022-12-25T23:40:54.696Z,10.50
2022-12-25T23:43:22.348Z,10.50
2022-12-25T23:45:50.255Z,10.50
2022-12-25T23:48:17.891Z,10.50
2022-12-25T23:50:46.869Z,10.50
2022-12-25T23:53:14.551Z,10.50
2022-12-25T23:55:42.662Z,10.50
2022-12-25T23:58:10.397Z,10.40
